Time;durP1;ratioP1;P1;durP2;ratioP2;P2;SDS_P1;SDS_P2;PMS_P1;PMS_P2;Temp;Humidity;BMP_temperature;BMP_pressure;BME280_temperature;BME280_humidity;BME280_pressure;Samples;Min_cycle;Max_cycle;Signal;HPM_P1;HPM_P2
2022/03/29 00:00:20;;;;;;;11.52;8.95;;;;;;;;;;4983115;28;20176;-87
2022/03/29 00:02:46;;;;;;;12.75;9.52;;;;;;;;;;4968530;28;20184;-86
2022/03/29 00:05:12;;;;;;;17.42;9.07;;;;;;;;;;4983863;28;20621;-87
2022/03/29 00:07:38;;;;;;;14.45;9.23;;;;;;;;;;4983407;28;20191;-87
2022/03/29 00:10:06;;;;;;;10.70;8.57;;;;;;;;;;4984193;28;20247;-87
2022/03/29 00:12:33;;;;;;;15.20;9.90;;;;;;;;;;4983527;28;20211;-86
2022/03/29 00:14:59;;;;;;;12.52;8.20;;;;;;;;;;4983680;28;20211;-87
2022/03/29 00:17:25;;;;;;;13.90;9.57;;;;;;;;;;4996301;28;20646;-87
2022/03/29 00:19:51;;;;;;;16.17;10.63;;;;;;;;;;4983334;28;20194;-87
2022/03/29 00:22:17;;;;;;;14.02;9.23;;;;;;;;;;4982095;28;20443;-87
2022/03/29 00:24:43;;;;;;;16.92;9.98;;;;;;;;;;4982532;28;20208;-87
2022/03/29 00:27:09;;;;;;;14.30;10.13;;;;;;;;;;4982926;28;20191;-87
2022/03/29 00:29:35;;;;;;;11.75;8.63;;;;;;;;;;4983854;28;20455;-87
2022/03/29 00:32:01;;;;;;;12.45;9.93;;;;;;;;;;4983124;28;20645;-87
2022/03/29 00:34:27;;;;;;;14.27;8.70;;;;;;;;;;4983466;28;20211;-87
2022/03/29 00:36:53;;;;;;;14.63;9.75;;;;;;;;;;4977967;28;20193;-87
2022/03/29 00:39:19;;;;;;;11.25;8.90;;;;;;;;;;4980853;28;20211;-85
2022/03/29 00:41:45;;;;;;;16.95;9.93;;;;;;;;;;4983712;28;20194;-85
2022/03/29 00:44:14;;;;;;;13.50;9.63;;;;;;;;;;4983889;28;20188;-86
2022/03/29 00:46:39;;;;;;;13.48;8.10;;;;;;;;;;4983227;28;20176;-86
2022/03/29 00:49:06;;;;;;;16.90;9.27;;;;;;;;;;4983799;28;20195;-86
2022/03/29 00:51:32;;;;;;;16.55;10.77;;;;;;;;;;4982846;28;20439;-87
2022/03/29 00:53:58;;;;;;;16.88;10.35;;;;;;;;;;4983737;28;20198;-86
2022/03/29 00:56:24;;;;;;;16.40;9.40;;;;;;;;;;4996368;28;20177;-86
2022/03/29 00:58:50;;;;;;;13.17;9.30;;;;;;;;;;4982753;28;20302;-86
2022/03/29 01:01:16;;;;;;;14.20;8.52;;;;;;;;;;4983377;28;20927;-87
2022/03/29 01:03:42;;;;;;;15.70;9.35;;;;;;;;;;4983212;28;20196;-86
2022/03/29 01:06:08;;;;;;;14.10;9.50;;;;;;;;;;4985608;28;20187;-87
2022/03/29 01:08:35;;;;;;;15.05;8.98;;;;;;;;;;4986322;28;20176;-86
2022/03/29 01:11:02;;;;;;;16.98;10.23;;;;;;;;;;4987765;28;20183;-86
2022/03/29 01:13:28;;;;;;;13.07;9.15;;;;;;;;;;4981799;28;20224;-86
2022/03/29 01:15:54;;;;;;;18.88;9.40;;;;;;;;;;4990276;28;20190;-86
2022/03/29 01:18:23;;;;;;;12.93;9.75;;;;;;;;;;4976000;28;20299;-86
2022/03/29 01:20:49;;;;;;;14.13;9.60;;;;;;;;;;4971700;28;20629;-86
2022/03/29 01:23:16;;;;;;;14.30;10.02;;;;;;;;;;4970636;28;20653;-87
2022/03/29 01:25:43;;;;;;;13.05;9.18;;;;;;;;;;4986442;28;20211;-86
2022/03/29 01:28:09;;;;;;;16.65;10.00;;;;;;;;;;4981328;28;20180;-86
2022/03/29 01:30:35;;;;;;;14.65;9.05;;;;;;;;;;4977311;28;20192;-86
2022/03/29 01:33:02;;;;;;;15.25;9.77;;;;;;;;;;4984777;28;20652;-87
2022/03/29 01:35:30;;;;;;;13.30;8.98;;;;;;;;;;4986774;28;20171;-87
2022/03/29 01:37:56;;;;;;;13.70;9.23;;;;;;;;;;4985629;28;20231;-87
2022/03/29 01:40:24;;;;;;;14.00;9.50;;;;;;;;;;4986289;28;20288;-87
2022/03/29 01:42:51;;;;;;;16.02;9.55;;;;;;;;;;4985653;28;20179;-87
2022/03/29 01:45:18;;;;;;;13.10;9.80;;;;;;;;;;4985934;28;20192;-87
2022/03/29 01:47:44;;;;;;;16.15;9.45;;;;;;;;;;4986219;28;20191;-88
2022/03/29 01:50:12;;;;;;;20.93;9.77;;;;;;;;;;4987421;28;20175;-87
2022/03/29 01:52:45;;;;;;;13.30;9.48;;;;;;;;;;4985105;28;20453;-87
2022/03/29 01:55:12;;;;;;;15.40;10.85;;;;;;;;;;4986713;28;20197;-87
2022/03/29 01:57:38;;;;;;;15.55;11.00;;;;;;;;;;4984815;28;20609;-88
2022/03/29 02:02:50;;;;;;;12.95;9.20;;;;;;;;;;4970769;28;20559;-87
2022/03/29 02:05:17;;;;;;;14.13;8.98;;;;;;;;;;4998916;28;20176;-87
2022/03/29 02:07:43;;;;;;;16.67;10.27;;;;;;;;;;4983240;28;20215;-87
2022/03/29 02:10:09;;;;;;;14.70;10.10;;;;;;;;;;4983755;28;20211;-87
2022/03/29 02:12:35;;;;;;;15.43;9.80;;;;;;;;;;5000741;28;20258;-87
2022/03/29 02:15:03;;;;;;;17.10;10.90;;;;;;;;;;4984276;28;20192;-87
2022/03/29 02:17:29;;;;;;;14.60;11.13;;;;;;;;;;4984516;28;20211;-87
2022/03/29 02:19:55;;;;;;;16.75;9.25;;;;;;;;;;4985937;28;20176;-87
2022/03/29 02:22:21;;;;;;;17.52;9.90;;;;;;;;;;4984971;28;20593;-87
2022/03/29 02:24:47;;;;;;;19.40;11.25;;;;;;;;;;4985533;28;20187;-87
2022/03/29 02:27:13;;;;;;;19.23;11.90;;;;;;;;;;4976957;28;20187;-87
2022/03/29 02:29:39;;;;;;;13.80;10.25;;;;;;;;;;4974708;28;20199;-87
2022/03/29 02:32:05;;;;;;;16.53;11.23;;;;;;;;;;4986152;28;20183;-86
2022/03/29 02:34:31;;;;;;;15.88;9.68;;;;;;;;;;4984897;28;20451;-87
2022/03/29 02:36:58;;;;;;;12.68;9.65;;;;;;;;;;4985404;28;20206;-87
2022/03/29 02:39:24;;;;;;;17.10;10.63;;;;;;;;;;4985197;28;20204;-87
2022/03/29 02:41:50;;;;;;;14.52;10.00;;;;;;;;;;4984132;28;20187;-88
2022/03/29 02:44:16;;;;;;;14.93;10.27;;;;;;;;;;4980200;28;20180;-87
2022/03/29 02:46:44;;;;;;;16.80;10.55;;;;;;;;;;4995747;28;20193;-87
2022/03/29 02:49:10;;;;;;;15.85;9.77;;;;;;;;;;4978697;28;20688;-87
2022/03/29 02:51:36;;;;;;;16.38;10.70;;;;;;;;;;4998184;28;20187;-87
2022/03/29 02:54:02;;;;;;;20.13;10.68;;;;;;;;;;4984879;28;20195;-88
2022/03/29 02:56:29;;;;;;;16.67;9.95;;;;;;;;;;4997685;28;20682;-87
2022/03/29 02:58:55;;;;;;;15.27;10.18;;;;;;;;;;4985167;28;20225;-87
2022/03/29 03:01:21;;;;;;;15.93;10.48;;;;;;;;;;4980438;28;20204;-87
2022/03/29 03:03:47;;;;;;;17.00;9.85;;;;;;;;;;4977387;28;20179;-87
2022/03/29 03:06:14;;;;;;;14.90;10.00;;;;;;;;;;4982671;28;20183;-87
2022/03/29 03:08:40;;;;;;;15.10;9.98;;;;;;;;;;4999108;28;20439;-87
2022/03/29 03:11:07;;;;;;;21.27;10.57;;;;;;;;;;4985828;28;20210;-87
2022/03/29 03:13:33;;;;;;;13.15;10.07;;;;;;;;;;4983766;28;20470;-86
2022/03/29 03:15:59;;;;;;;15.82;9.52;;;;;;;;;;4979936;28;20226;-87
2022/03/29 03:18:25;;;;;;;15.38;10.43;;;;;;;;;;4984468;28;20207;-87
2022/03/29 03:20:51;;;;;;;11.85;9.10;;;;;;;;;;4984313;28;20184;-86
2022/03/29 03:23:17;;;;;;;12.63;9.05;;;;;;;;;;4985526;28;20178;-87
2022/03/29 03:25:43;;;;;;;18.07;11.10;;;;;;;;;;4982746;28;20259;-87
2022/03/29 03:28:09;;;;;;;14.95;10.57;;;;;;;;;;4976211;28;20929;-87
2022/03/29 03:30:35;;;;;;;15.45;10.18;;;;;;;;;;4974937;28;20187;-87
2022/03/29 03:33:01;;;;;;;17.30;10.30;;;;;;;;;;4982915;28;20632;-87
2022/03/29 03:35:27;;;;;;;13.83;10.20;;;;;;;;;;4984144;28;20423;-87
2022/03/29 03:37:53;;;;;;;19.88;10.07;;;;;;;;;;4985290;28;20483;-86
2022/03/29 03:40:19;;;;;;;13.57;8.67;;;;;;;;;;4983825;28;20202;-88
2022/03/29 03:42:45;;;;;;;19.52;10.55;;;;;;;;;;4998662;28;20467;-88
2022/03/29 03:45:11;;;;;;;15.32;10.52;;;;;;;;;;4984035;28;20187;-88
2022/03/29 03:47:37;;;;;;;16.42;10.38;;;;;;;;;;4983443;28;20308;-87
2022/03/29 03:50:04;;;;;;;15.50;10.00;;;;;;;;;;4983929;28;20176;-87
2022/03/29 03:52:30;;;;;;;15.18;10.65;;;;;;;;;;4984302;28;20175;-88
2022/03/29 03:54:56;;;;;;;12.10;9.45;;;;;;;;;;4983912;28;20188;-87
2022/03/29 03:57:23;;;;;;;13.02;9.85;;;;;;;;;;4983495;28;20183;-87
2022/03/29 03:59:51;;;;;;;15.73;11.23;;;;;;;;;;4982298;28;20207;-87
2022/03/29 04:02:20;;;;;;;18.60;9.90;;;;;;;;;;4979820;28;20179;-86
2022/03/29 04:04:46;;;;;;;19.27;10.80;;;;;;;;;;4984044;28;20176;-88
2022/03/29 04:07:12;;;;;;;12.50;8.65;;;;;;;;;;4979850;28;20192;-87
2022/03/29 04:09:39;;;;;;;14.60;9.70;;;;;;;;;;4975190;28;20231;-87
2022/03/29 04:12:05;;;;;;;13.57;8.90;;;;;;;;;;4983833;28;20494;-87
2022/03/29 04:14:31;;;;;;;16.48;9.85;;;;;;;;;;4982903;28;20187;-87
2022/03/29 04:16:57;;;;;;;18.00;9.00;;;;;;;;;;4984258;28;20188;-87
2022/03/29 04:19:23;;;;;;;17.08;10.48;;;;;;;;;;4983661;28;20513;-88
2022/03/29 04:21:49;;;;;;;12.93;10.63;;;;;;;;;;4984181;28;20622;-87
2022/03/29 04:24:15;;;;;;;13.95;9.13;;;;;;;;;;4982329;28;20190;-87
2022/03/29 04:26:41;;;;;;;14.30;9.10;;;;;;;;;;4984311;28;20191;-88
2022/03/29 04:29:07;;;;;;;16.13;10.50;;;;;;;;;;4984124;28;20244;-88
2022/03/29 04:31:33;;;;;;;18.92;9.45;;;;;;;;;;4983305;28;20430;-87
2022/03/29 04:34:00;;;;;;;17.92;10.38;;;;;;;;;;4981848;28;20188;-86
2022/03/29 04:36:26;;;;;;;14.30;9.77;;;;;;;;;;4983485;28;20251;-87
2022/03/29 04:38:52;;;;;;;17.83;8.75;;;;;;;;;;4983305;28;20711;-87
2022/03/29 04:41:18;;;;;;;13.48;9.50;;;;;;;;;;4988261;28;20200;-84
2022/03/29 04:43:45;;;;;;;17.40;11.75;;;;;;;;;;4987458;28;20180;-87
2022/03/29 04:46:10;;;;;;;16.60;9.68;;;;;;;;;;4986295;28;20176;-88
2022/03/29 04:48:37;;;;;;;12.30;9.43;;;;;;;;;;4986126;28;20242;-88
2022/03/29 04:51:03;;;;;;;14.65;9.52;;;;;;;;;;4988098;28;20439;-87
2022/03/29 04:53:29;;;;;;;20.27;10.35;;;;;;;;;;5000220;28;20177;-87
2022/03/29 04:55:56;;;;;;;17.00;9.00;;;;;;;;;;4986881;28;20172;-87
2022/03/29 04:58:22;;;;;;;14.25;9.20;;;;;;;;;;4982473;28;20267;-87
2022/03/29 05:00:48;;;;;;;17.13;8.82;;;;;;;;;;4979070;28;20212;-87
2022/03/29 05:03:14;;;;;;;13.30;9.33;;;;;;;;;;5002080;28;20534;-87
2022/03/29 05:05:40;;;;;;;13.83;8.43;;;;;;;;;;5001842;28;20481;-88
2022/03/29 05:08:06;;;;;;;16.67;9.90;;;;;;;;;;4986503;28;20454;-87
2022/03/29 05:10:32;;;;;;;16.05;9.50;;;;;;;;;;4987072;28;20215;-87
2022/03/29 05:12:58;;;;;;;16.07;9.90;;;;;;;;;;4982639;28;20224;-88
2022/03/29 05:15:24;;;;;;;15.65;9.07;;;;;;;;;;4992030;28;20451;-87
2022/03/29 05:17:50;;;;;;;14.18;9.10;;;;;;;;;;4986898;28;20214;-87
2022/03/29 05:20:17;;;;;;;14.90;9.40;;;;;;;;;;4999998;28;20248;-88
2022/03/29 05:22:52;;;;;;;15.27;8.93;;;;;;;;;;4984205;28;20188;-86
2022/03/29 05:25:19;;;;;;;13.77;8.45;;;;;;;;;;4986693;28;20175;-87
2022/03/29 05:27:46;;;;;;;13.38;8.63;;;;;;;;;;4985498;28;20265;-87
2022/03/29 05:30:13;;;;;;;14.02;8.10;;;;;;;;;;4986774;28;20188;-88
2022/03/29 05:32:39;;;;;;;14.07;9.68;;;;;;;;;;4986575;28;20188;-85
2022/03/29 05:35:08;;;;;;;14.07;9.18;;;;;;;;;;4987163;28;20176;-86
2022/03/29 05:37:34;;;;;;;15.65;9.55;;;;;;;;;;4985260;28;20656;-87
2022/03/29 05:40:00;;;;;;;19.63;10.45;;;;;;;;;;4983662;28;20194;-87
2022/03/29 05:42:26;;;;;;;15.13;8.75;;;;;;;;;;4986696;28;20183;-87
2022/03/29 05:44:52;;;;;;;19.67;9.45;;;;;;;;;;4984183;28;20200;-86
2022/03/29 05:50:03;;;;;;;14.50;8.93;;;;;;;;;;4986565;28;20434;-85
2022/03/29 05:52:29;;;;;;;16.95;9.63;;;;;;;;;;4985971;28;20203;-86
2022/03/29 05:54:56;;;;;;;23.83;10.87;;;;;;;;;;4980572;28;20196;-85
2022/03/29 05:57:22;;;;;;;14.50;9.00;;;;;;;;;;4975469;28;20941;-84
2022/03/29 05:59:48;;;;;;;18.60;9.93;;;;;;;;;;4985539;28;20203;-85
2022/03/29 06:02:15;;;;;;;21.63;11.10;;;;;;;;;;4982627;28;20175;-84
2022/03/29 06:04:41;;;;;;;18.10;8.77;;;;;;;;;;4985550;28;20222;-87
2022/03/29 06:07:09;;;;;;;17.40;9.55;;;;;;;;;;4999656;28;20192;-85
2022/03/29 06:09:36;;;;;;;18.40;11.20;;;;;;;;;;4983883;28;20188;-84
2022/03/29 06:12:02;;;;;;;15.05;9.70;;;;;;;;;;4984070;28;20234;-84
2022/03/29 06:14:28;;;;;;;22.05;9.30;;;;;;;;;;4983969;28;20186;-84
2022/03/29 06:16:55;;;;;;;15.75;8.63;;;;;;;;;;4985289;28;20186;-83
2022/03/29 06:19:21;;;;;;;15.15;8.38;;;;;;;;;;4985417;28;20219;-86
2022/03/29 06:21:47;;;;;;;16.20;10.38;;;;;;;;;;4985455;28;20184;-85
2022/03/29 06:24:13;;;;;;;22.08;10.15;;;;;;;;;;4983415;28;20203;-83
2022/03/29 06:26:40;;;;;;;18.15;9.13;;;;;;;;;;4985478;28;20192;-82
2022/03/29 06:29:10;;;;;;;15.35;8.75;;;;;;;;;;4985590;28;20210;-84
2022/03/29 06:31:36;;;;;;;17.60;9.90;;;;;;;;;;4985177;28;20202;-84
2022/03/29 06:34:02;;;;;;;13.52;8.43;;;;;;;;;;4983374;28;20251;-83
2022/03/29 06:36:28;;;;;;;17.00;9.50;;;;;;;;;;4988521;28;20200;-83
2022/03/29 06:38:54;;;;;;;15.10;8.50;;;;;;;;;;4984783;28;20216;-83
2022/03/29 06:41:21;;;;;;;15.53;10.00;;;;;;;;;;4985569;28;20179;-84
2022/03/29 06:43:47;;;;;;;15.63;9.98;;;;;;;;;;4972999;28;20432;-84
2022/03/29 06:46:13;;;;;;;18.00;10.43;;;;;;;;;;4987999;28;20235;-84
2022/03/29 06:48:41;;;;;;;14.60;8.88;;;;;;;;;;4975989;28;20282;-84
2022/03/29 06:51:09;;;;;;;17.55;10.00;;;;;;;;;;4983415;28;20195;-84
2022/03/29 06:53:35;;;;;;;20.00;11.07;;;;;;;;;;4984686;28;20199;-85
2022/03/29 06:56:01;;;;;;;23.30;11.85;;;;;;;;;;4984287;28;20896;-85
2022/03/29 06:58:28;;;;;;;15.07;9.60;;;;;;;;;;4984466;28;20216;-85
2022/03/29 07:00:56;;;;;;;21.33;11.60;;;;;;;;;;4981003;28;20508;-86
2022/03/29 07:03:22;;;;;;;20.45;10.98;;;;;;;;;;4989966;28;20180;-85
2022/03/29 07:05:48;;;;;;;16.77;10.07;;;;;;;;;;4999166;28;20218;-87
2022/03/29 07:08:16;;;;;;;16.75;10.00;;;;;;;;;;4983972;28;20207;-85
2022/03/29 07:13:28;;;;;;;17.05;10.15;;;;;;;;;;4984173;28;20228;-86
2022/03/29 07:15:55;;;;;;;26.33;11.02;;;;;;;;;;4983407;28;20239;-87
2022/03/29 07:18:21;;;;;;;19.23;10.95;;;;;;;;;;4984172;28;20207;-85
2022/03/29 07:20:47;;;;;;;17.00;10.40;;;;;;;;;;4983801;28;20251;-85
2022/03/29 07:23:13;;;;;;;15.95;10.05;;;;;;;;;;4984343;28;20172;-85
2022/03/29 07:25:40;;;;;;;21.00;11.27;;;;;;;;;;4995758;28;20188;-85
2022/03/29 07:28:11;;;;;;;18.17;10.48;;;;;;;;;;4977876;28;20267;-86
2022/03/29 07:30:38;;;;;;;24.88;10.95;;;;;;;;;;4999189;28;20198;-87
2022/03/29 07:33:04;;;;;;;19.15;10.13;;;;;;;;;;4983675;28;20648;-85
2022/03/29 07:35:31;;;;;;;18.35;9.60;;;;;;;;;;4981197;28;20219;-83
2022/03/29 07:37:58;;;;;;;15.75;9.52;;;;;;;;;;4984596;28;20210;-85
2022/03/29 07:40:25;;;;;;;17.92;10.30;;;;;;;;;;4982148;28;20195;-81
2022/03/29 07:42:51;;;;;;;18.52;9.00;;;;;;;;;;4983686;28;20191;-83
2022/03/29 07:45:18;;;;;;;14.25;9.63;;;;;;;;;;4978939;28;20184;-83
2022/03/29 07:47:44;;;;;;;15.27;10.13;;;;;;;;;;4978281;28;20175;-82
2022/03/29 07:50:12;;;;;;;18.45;10.07;;;;;;;;;;4982402;28;20179;-83
2022/03/29 07:52:38;;;;;;;16.50;9.88;;;;;;;;;;4980779;28;20198;-83
2022/03/29 07:55:06;;;;;;;20.50;9.88;;;;;;;;;;4971811;28;20183;-83
2022/03/29 07:57:32;;;;;;;18.30;9.73;;;;;;;;;;4979252;28;20180;-82
2022/03/29 07:59:58;;;;;;;16.10;10.77;;;;;;;;;;4982165;28;20207;-83
2022/03/29 08:02:24;;;;;;;20.90;10.50;;;;;;;;;;4982164;28;20183;-83
2022/03/29 08:04:50;;;;;;;25.45;10.77;;;;;;;;;;4983084;28;20251;-83
2022/03/29 08:07:16;;;;;;;21.30;10.60;;;;;;;;;;4983607;28;20180;-83
2022/03/29 08:09:43;;;;;;;20.20;10.80;;;;;;;;;;4981837;28;20232;-83
2022/03/29 08:12:09;;;;;;;23.70;10.90;;;;;;;;;;4983877;28;20295;-83
2022/03/29 08:14:35;;;;;;;17.17;11.52;;;;;;;;;;4999715;28;20186;-83
2022/03/29 08:17:01;;;;;;;17.15;10.35;;;;;;;;;;4986639;28;21462;-83
2022/03/29 08:19:27;;;;;;;21.55;11.88;;;;;;;;;;4987328;28;20453;-83
2022/03/29 08:21:53;;;;;;;18.77;10.30;;;;;;;;;;4988186;28;20219;-83
2022/03/29 08:24:20;;;;;;;19.27;10.20;;;;;;;;;;4985668;28;20675;-83
2022/03/29 08:26:47;;;;;;;20.33;10.77;;;;;;;;;;5001588;28;20459;-83
2022/03/29 08:29:15;;;;;;;21.83;10.40;;;;;;;;;;4986545;28;20207;-83
2022/03/29 08:31:41;;;;;;;18.58;10.23;;;;;;;;;;4987143;28;20270;-84
2022/03/29 08:34:07;;;;;;;20.70;10.27;;;;;;;;;;4983027;28;20185;-83
2022/03/29 08:36:36;;;;;;;15.95;10.95;;;;;;;;;;4976926;28;20185;-85
2022/03/29 08:39:03;;;;;;;24.00;12.30;;;;;;;;;;4999480;28;20469;-84
2022/03/29 08:41:33;;;;;;;17.50;10.95;;;;;;;;;;4986403;28;20206;-83
2022/03/29 08:44:00;;;;;;;27.88;12.00;;;;;;;;;;4986446;28;20179;-83
2022/03/29 08:46:31;;;;;;;29.40;12.95;;;;;;;;;;4985541;28;20168;-84
2022/03/29 08:48:58;;;;;;;20.55;12.20;;;;;;;;;;4986410;28;20201;-83
2022/03/29 08:51:24;;;;;;;22.23;12.02;;;;;;;;;;4985808;28;20189;-85
2022/03/29 08:53:50;;;;;;;24.20;12.07;;;;;;;;;;5001235;28;20186;-83
2022/03/29 08:56:16;;;;;;;25.98;12.20;;;;;;;;;;4982177;28;20211;-84
2022/03/29 08:58:42;;;;;;;20.50;11.27;;;;;;;;;;4974557;28;20235;-84
2022/03/29 09:01:08;;;;;;;27.60;13.10;;;;;;;;;;4982742;28;20522;-84
2022/03/29 09:03:34;;;;;;;25.02;12.57;;;;;;;;;;4983002;28;20467;-83
2022/03/29 09:06:07;;;;;;;24.10;13.05;;;;;;;;;;4999623;28;20206;-83
2022/03/29 09:08:43;;;;;;;22.48;12.30;;;;;;;;;;4986751;28;20235;-84
2022/03/29 09:11:09;;;;;;;22.05;12.68;;;;;;;;;;4985565;28;20190;-85
2022/03/29 09:13:35;;;;;;;22.38;13.30;;;;;;;;;;4986043;28;20216;-86
2022/03/29 09:16:05;;;;;;;23.50;12.60;;;;;;;;;;4985788;28;20196;-84
2022/03/29 09:18:31;;;;;;;27.85;15.00;;;;;;;;;;4986575;28;20522;-85
2022/03/29 09:21:14;;;;;;;28.45;13.43;;;;;;;;;;4984811;28;20250;-84
2022/03/29 09:23:40;;;;;;;27.27;13.13;;;;;;;;;;5001165;28;20269;-83
2022/03/29 09:26:07;;;;;;;22.20;13.18;;;;;;;;;;4983740;28;20334;-82
2022/03/29 09:28:34;;;;;;;24.25;11.32;;;;;;;;;;4975619;28;20239;-82
2022/03/29 09:31:00;;;;;;;23.17;12.15;;;;;;;;;;4979955;28;20198;-82
2022/03/29 09:33:36;;;;;;;23.92;13.88;;;;;;;;;;4986246;28;20183;-84
2022/03/29 09:36:07;;;;;;;22.15;14.40;;;;;;;;;;4985826;28;20190;-82
2022/03/29 09:38:36;;;;;;;27.90;13.75;;;;;;;;;;5000433;28;20200;-85
2022/03/29 09:41:02;;;;;;;24.17;13.32;;;;;;;;;;4987701;28;20168;-81
2022/03/29 09:43:30;;;;;;;24.90;14.02;;;;;;;;;;4984233;28;20184;-81
2022/03/29 09:45:59;;;;;;;23.25;13.05;;;;;;;;;;4978919;28;20180;-82
2022/03/29 09:48:25;;;;;;;24.38;13.35;;;;;;;;;;4990621;28;20180;-83
2022/03/29 09:51:10;;;;;;;23.25;13.18;;;;;;;;;;5000600;28;20525;-82
2022/03/29 09:53:53;;;;;;;26.10;16.05;;;;;;;;;;4999716;28;20180;-80
2022/03/29 09:56:28;;;;;;;24.23;12.57;;;;;;;;;;4983423;28;20182;-82
2022/03/29 09:59:09;;;;;;;30.33;15.27;;;;;;;;;;4985473;28;20274;-81
2022/03/29 10:01:48;;;;;;;19.48;11.77;;;;;;;;;;4985096;28;20175;-82
2022/03/29 10:04:16;;;;;;;24.75;14.52;;;;;;;;;;4985744;28;20215;-82
2022/03/29 10:06:42;;;;;;;27.20;13.98;;;;;;;;;;4985030;28;20188;-80
2022/03/29 10:09:27;;;;;;;22.27;14.15;;;;;;;;;;4985696;28;20192;-81
2022/03/29 10:12:04;;;;;;;20.30;12.10;;;;;;;;;;4992456;28;20306;-83
2022/03/29 10:14:31;;;;;;;24.08;13.18;;;;;;;;;;4985839;28;20711;-83
2022/03/29 10:16:58;;;;;;;21.17;12.90;;;;;;;;;;4979359;28;20187;-82
2022/03/29 10:19:24;;;;;;;28.00;13.13;;;;;;;;;;4982064;28;20226;-83
2022/03/29 10:21:53;;;;;;;27.13;15.15;;;;;;;;;;4984031;28;20184;-82
2022/03/29 10:24:19;;;;;;;22.75;12.55;;;;;;;;;;4984444;28;20256;-82
2022/03/29 10:26:48;;;;;;;23.45;14.48;;;;;;;;;;4999906;28;20187;-82
2022/03/29 10:29:15;;;;;;;24.63;13.90;;;;;;;;;;4969669;28;20185;-83
2022/03/29 10:31:57;;;;;;;29.15;15.00;;;;;;;;;;4984748;28;20192;-82
2022/03/29 10:34:26;;;;;;;30.35;14.00;;;;;;;;;;4996124;28;20685;-84
2022/03/29 10:37:07;;;;;;;30.27;13.88;;;;;;;;;;4976746;28;20239;-83
2022/03/29 10:39:53;;;;;;;23.48;14.55;;;;;;;;;;4984657;28;20275;-83
2022/03/29 10:42:25;;;;;;;25.00;14.60;;;;;;;;;;4985149;28;20607;-82
2022/03/29 10:45:00;;;;;;;31.25;14.30;;;;;;;;;;4983561;28;20271;-82
2022/03/29 10:47:27;;;;;;;24.65;15.13;;;;;;;;;;4984114;28;20234;-82
2022/03/29 10:49:53;;;;;;;29.05;15.60;;;;;;;;;;4984583;28;20192;-82
2022/03/29 10:52:22;;;;;;;27.23;15.82;;;;;;;;;;4985716;28;20188;-82
2022/03/29 10:54:48;;;;;;;26.15;15.32;;;;;;;;;;4980362;28;20192;-83
2022/03/29 10:57:26;;;;;;;30.08;15.05;;;;;;;;;;4976499;28;20220;-83
2022/03/29 10:59:58;;;;;;;24.45;15.07;;;;;;;;;;4984493;28;20240;-83
2022/03/29 11:02:25;;;;;;;24.15;13.98;;;;;;;;;;4985875;28;20172;-81
2022/03/29 11:05:03;;;;;;;23.52;14.60;;;;;;;;;;4983461;28;20722;-83
2022/03/29 11:07:30;;;;;;;20.70;12.68;;;;;;;;;;4999188;28;20208;-83
2022/03/29 11:10:10;;;;;;;26.52;16.38;;;;;;;;;;4983462;28;20193;-82
2022/03/29 11:12:38;;;;;;;28.65;14.55;;;;;;;;;;4999039;28;20228;-83
2022/03/29 11:15:23;;;;;;;26.55;15.25;;;;;;;;;;4983104;28;20192;-82
2022/03/29 11:17:49;;;;;;;25.90;16.35;;;;;;;;;;4982909;28;20638;-82
2022/03/29 11:20:29;;;;;;;26.27;16.13;;;;;;;;;;4986099;28;20235;-82
2022/03/29 11:22:57;;;;;;;20.80;13.50;;;;;;;;;;4983701;28;20423;-82
2022/03/29 11:25:23;;;;;;;25.35;14.82;;;;;;;;;;4984041;28;20195;-83
2022/03/29 11:27:49;;;;;;;23.95;14.95;;;;;;;;;;4983903;28;20217;-84
2022/03/29 11:30:15;;;;;;;30.05;16.02;;;;;;;;;;4983705;28;20539;-82
2022/03/29 11:32:42;;;;;;;25.08;15.45;;;;;;;;;;4984251;28;20216;-82
2022/03/29 11:35:11;;;;;;;31.55;16.23;;;;;;;;;;4983083;28;20698;-83
2022/03/29 11:37:43;;;;;;;32.65;15.45;;;;;;;;;;4983649;28;20196;-82
2022/03/29 11:40:10;;;;;;;28.35;16.00;;;;;;;;;;4995746;28;20217;-83
2022/03/29 11:42:53;;;;;;;24.80;15.38;;;;;;;;;;4974803;28;20207;-84
2022/03/29 11:45:26;;;;;;;26.45;16.05;;;;;;;;;;4983493;28;20248;-83
2022/03/29 11:47:59;;;;;;;23.13;14.35;;;;;;;;;;4983308;28;20192;-82
2022/03/29 11:50:32;;;;;;;24.52;14.55;;;;;;;;;;4983111;28;20203;-83
2022/03/29 11:52:58;;;;;;;30.70;15.57;;;;;;;;;;4983352;28;20169;-83
2022/03/29 11:55:25;;;;;;;30.52;16.20;;;;;;;;;;4982432;28;20208;-83
2022/03/29 11:57:52;;;;;;;26.10;15.32;;;;;;;;;;4982385;28;20181;-83
2022/03/29 12:00:26;;;;;;;32.47;16.27;;;;;;;;;;4998641;28;20188;-86
2022/03/29 12:02:52;;;;;;;25.92;14.98;;;;;;;;;;4983498;28;20181;-85
2022/03/29 12:05:28;;;;;;;29.63;15.35;;;;;;;;;;4985316;28;20434;-83
2022/03/29 12:08:02;;;;;;;23.35;15.20;;;;;;;;;;4979971;28;20197;-84
2022/03/29 12:10:33;;;;;;;21.60;13.88;;;;;;;;;;4981517;28;20185;-83
2022/03/29 12:12:59;;;;;;;27.13;15.00;;;;;;;;;;4982980;28;20238;-81
2022/03/29 12:15:25;;;;;;;25.50;14.13;;;;;;;;;;4983092;28;20185;-81
2022/03/29 12:20:40;;;;;;;26.45;14.30;;;;;;;;;;4983115;28;20198;-81
2022/03/29 12:23:23;;;;;;;24.20;13.75;;;;;;;;;;4984669;28;20206;-79
2022/03/29 12:25:49;;;;;;;23.08;13.48;;;;;;;;;;4998479;28;20178;-80
2022/03/29 12:28:17;;;;;;;22.77;13.27;;;;;;;;;;4979172;28;20191;-80
2022/03/29 12:30:43;;;;;;;25.27;14.98;;;;;;;;;;4989739;28;20233;-80
2022/03/29 12:33:10;;;;;;;25.67;15.98;;;;;;;;;;4983184;28;20546;-80
2022/03/29 12:35:36;;;;;;;23.00;13.57;;;;;;;;;;4982304;28;20174;-79
2022/03/29 12:38:03;;;;;;;28.48;15.35;;;;;;;;;;4984125;28;20177;-79
2022/03/29 12:40:29;;;;;;;24.88;14.75;;;;;;;;;;4983681;28;20291;-80
2022/03/29 12:43:05;;;;;;;21.02;13.88;;;;;;;;;;4982535;28;20182;-79
2022/03/29 12:45:32;;;;;;;21.17;12.98;;;;;;;;;;4982556;28;20185;-79
2022/03/29 12:48:01;;;;;;;20.88;12.38;;;;;;;;;;4981329;28;20725;-79
2022/03/29 12:50:27;;;;;;;17.38;12.20;;;;;;;;;;4998608;28;20187;-78
2022/03/29 12:52:53;;;;;;;19.63;11.85;;;;;;;;;;4983434;28;20181;-78
2022/03/29 12:55:20;;;;;;;23.38;12.32;;;;;;;;;;4979117;28;20185;-80
2022/03/29 12:57:46;;;;;;;20.63;12.30;;;;;;;;;;4980340;28;20181;-79
2022/03/29 13:00:14;;;;;;;16.35;10.95;;;;;;;;;;4974357;28;20200;-80
2022/03/29 13:02:46;;;;;;;13.85;11.15;;;;;;;;;;4970264;28;20627;-80
2022/03/29 13:05:14;;;;;;;21.08;10.70;;;;;;;;;;4987904;28;20182;-80
2022/03/29 13:07:44;;;;;;;18.05;10.55;;;;;;;;;;4986635;28;20175;-81
2022/03/29 13:10:20;;;;;;;18.38;9.95;;;;;;;;;;4985960;28;20200;-81
2022/03/29 13:13:05;;;;;;;14.60;8.45;;;;;;;;;;5000248;28;20231;-84
2022/03/29 13:15:46;;;;;;;14.73;8.70;;;;;;;;;;4999250;28;20191;-83
2022/03/29 13:18:20;;;;;;;12.80;7.72;;;;;;;;;;4984425;28;20235;-80
2022/03/29 13:20:47;;;;;;;14.88;9.10;;;;;;;;;;5001746;28;20571;-82
2022/03/29 13:23:14;;;;;;;18.42;8.13;;;;;;;;;;4985908;28;20180;-82
2022/03/29 13:25:40;;;;;;;18.35;8.82;;;;;;;;;;4974695;28;20247;-81
2022/03/29 13:28:06;;;;;;;14.40;9.60;;;;;;;;;;4980566;28;20190;-82
2022/03/29 13:30:33;;;;;;;14.80;8.20;;;;;;;;;;4985932;28;20258;-81
2022/03/29 13:32:59;;;;;;;17.67;8.80;;;;;;;;;;4984686;28;20276;-81
2022/03/29 13:35:25;;;;;;;14.10;8.40;;;;;;;;;;4998897;28;20176;-82
2022/03/29 13:37:51;;;;;;;20.52;8.60;;;;;;;;;;4984313;28;20431;-82
2022/03/29 13:40:17;;;;;;;15.57;8.55;;;;;;;;;;4986225;28;20207;-82
2022/03/29 13:42:43;;;;;;;13.70;9.10;;;;;;;;;;4986044;28;20195;-83
2022/03/29 13:45:10;;;;;;;17.00;10.37;;;;;;;;;;4985893;28;20555;-82
2022/03/29 13:47:36;;;;;;;20.90;10.90;;;;;;;;;;4984777;28;20474;-82
2022/03/29 13:50:03;;;;;;;15.88;10.82;;;;;;;;;;4985484;28;20657;-84
2022/03/29 13:52:29;;;;;;;20.85;11.25;;;;;;;;;;4997607;28;20207;-81
2022/03/29 13:54:55;;;;;;;20.90;12.52;;;;;;;;;;4977524;28;20203;-81
2022/03/29 13:57:21;;;;;;;23.40;11.97;;;;;;;;;;4999602;28;20186;-81
2022/03/29 13:59:47;;;;;;;19.38;10.80;;;;;;;;;;4985794;28;21247;-82
2022/03/29 14:02:14;;;;;;;21.67;12.07;;;;;;;;;;4987106;28;20664;-84
2022/03/29 14:04:40;;;;;;;19.80;12.27;;;;;;;;;;4985619;28;20207;-82
2022/03/29 14:07:06;;;;;;;28.80;13.10;;;;;;;;;;4981202;28;20624;-82
2022/03/29 14:09:32;;;;;;;21.92;13.55;;;;;;;;;;4990653;28;20446;-82
2022/03/29 14:11:59;;;;;;;23.13;12.40;;;;;;;;;;4979039;28;20763;-83
2022/03/29 14:14:25;;;;;;;25.77;14.02;;;;;;;;;;4983727;28;20170;-82
2022/03/29 14:16:51;;;;;;;20.25;13.45;;;;;;;;;;4985492;28;20534;-82
2022/03/29 14:19:17;;;;;;;22.02;13.25;;;;;;;;;;4984759;28;20221;-83
2022/03/29 14:21:43;;;;;;;22.03;11.23;;;;;;;;;;4982967;28;20197;-81
2022/03/29 14:24:09;;;;;;;23.60;12.57;;;;;;;;;;4985135;28;20444;-82
2022/03/29 14:26:35;;;;;;;25.75;16.33;;;;;;;;;;4999051;28;20670;-82
2022/03/29 14:29:01;;;;;;;16.17;12.33;;;;;;;;;;4985752;28;20186;-81
2022/03/29 14:31:28;;;;;;;19.00;13.80;;;;;;;;;;4984971;28;20447;-80
2022/03/29 14:33:55;;;;;;;19.05;12.55;;;;;;;;;;4980789;28;20189;-83